KTMB/TMB METAR and TAF weather

Enter ICAO airport designator
Station Type Date Time Source
KTMB METAR 2021/05/12 04:53 UTC NOAA

KTMB 120453Z AUTO 12006KT 10SM CLR 27/22 A3006 RMK AO2 SLP177 T02720222 403280217


Station Type Date Time Source
KTMB Decoded METAR 2021/05/12 04:53 UTC NOAA

KENDALL-TAMIAMI EXEC AIRPORT , FL, United States (KTMB) 25-39N 080-26W 2M
May 12, 2021 - 12:53 AM EDT / 2021.05.12 0453 UTC
Wind: from the ESE (120 degrees) at 7 MPH (6 KT):0
Visibility: 10 mile(s):0
Sky conditions: clear
Temperature: 81.0 F (27.2 C)
Dew Point: 72.0 F (22.2 C)
Relative Humidity: 74%
Pressure (altimeter): 30.06 in. Hg (1017 hPa)
ob: KTMB 120453Z AUTO 12006KT 10SM CLR 27/22 A3006 RMK AO2 SLP177 T02720222 403280217
cycle: 5

Station Type Date Time Source
KTMB TAF 2021/05/12 03:15 UTC NOAA

KTMB 120311Z 1203/1224 11007KT P6SM SKC
FM120500 VRB03KT P6SM SCT250
FM121400 15010KT P6SM FEW025 SCT200

Example: see airport list